createdAt,value
2018-09-14T00:02:21.743Z,14.27
2018-09-14T00:04:50.570Z,13.73
2018-09-14T00:07:20.145Z,15.63
2018-09-14T00:09:48.983Z,15.35
2018-09-14T00:12:18.551Z,14.90
2018-09-14T00:14:47.384Z,15.30
2018-09-14T00:17:16.227Z,15.03
2018-09-14T00:19:45.057Z,16.23
2018-09-14T00:22:13.909Z,16.03
2018-09-14T00:24:42.755Z,16.65
2018-09-14T00:27:11.594Z,15.00
2018-09-14T00:29:40.424Z,16.67
2018-09-14T00:32:10.012Z,15.77
2018-09-14T00:34:38.856Z,15.53
2018-09-14T00:37:07.685Z,17.08
2018-09-14T00:39:37.308Z,17.95
2018-09-14T00:42:06.143Z,16.03
2018-09-14T00:44:34.983Z,15.87
2018-09-14T00:47:04.552Z,14.23
2018-09-14T00:49:33.385Z,16.35
2018-09-14T00:52:02.224Z,15.53
2018-09-14T00:54:31.079Z,13.97
2018-09-14T00:56:59.919Z,15.93
2018-09-14T00:59:28.755Z,14.20
2018-09-14T01:01:57.608Z,15.17
2018-09-14T01:04:26.463Z,15.47
2018-09-14T01:06:55.293Z,15.93
2018-09-14T01:09:24.130Z,15.10
2018-09-14T01:11:52.971Z,17.43
2018-09-14T01:14:21.852Z,16.77
2018-09-14T01:16:50.683Z,14.00
2018-09-14T01:19:19.523Z,15.77
2018-09-14T01:21:48.351Z,15.80
2018-09-14T01:24:17.193Z,17.73
2018-09-14T01:26:46.029Z,15.63
2018-09-14T01:29:15.613Z,16.73
2018-09-14T01:31:44.470Z,16.20
2018-09-14T01:34:13.298Z,15.50
2018-09-14T01:36:42.870Z,16.50
2018-09-14T01:39:11.700Z,18.70
2018-09-14T01:41:40.537Z,18.35
2018-09-14T01:44:09.378Z,17.15
2018-09-14T01:46:38.962Z,15.80
2018-09-14T01:49:07.843Z,14.87
2018-09-14T01:51:36.671Z,16.77
2018-09-14T01:54:06.251Z,16.93
2018-09-14T01:56:35.098Z,13.50
2018-09-14T01:59:03.932Z,14.70
2018-09-14T02:01:32.781Z,17.23
2018-09-14T02:04:01.613Z,14.70
2018-09-14T02:06:30.438Z,15.40
2018-09-14T02:08:59.293Z,16.90
2018-09-14T02:11:28.126Z,15.20
2018-09-14T02:13:56.962Z,16.27
2018-09-14T02:16:25.800Z,14.60
2018-09-14T02:18:54.635Z,15.80
2018-09-14T02:21:23.469Z,14.47
2018-09-14T02:23:53.060Z,16.57
2018-09-14T02:26:21.893Z,15.80
2018-09-14T02:28:50.727Z,16.40
2018-09-14T02:31:19.577Z,14.97
2018-09-14T02:33:48.397Z,16.37
2018-09-14T02:36:17.244Z,15.07
2018-09-14T02:38:46.067Z,16.90
2018-09-14T02:41:14.901Z,17.40
2018-09-14T02:43:43.729Z,15.87
2018-09-14T02:46:12.567Z,15.93
2018-09-14T02:48:41.406Z,17.30
2018-09-14T02:51:10.241Z,18.42
2018-09-14T02:53:39.087Z,18.10
2018-09-14T02:56:07.911Z,17.95
2018-09-14T02:58:36.740Z,15.07
2018-09-14T03:01:05.571Z,14.67
2018-09-14T03:03:34.413Z,13.97
2018-09-14T03:06:03.244Z,13.50
2018-09-14T03:08:32.080Z,13.10
2018-09-14T03:11:01.656Z,13.47
2018-09-14T03:13:30.489Z,13.45
2018-09-14T03:16:00.079Z,10.13
2018-09-14T03:18:28.924Z,10.93
2018-09-14T03:20:57.765Z,11.12
2018-09-14T03:23:26.616Z,10.57
2018-09-14T03:25:55.450Z,11.45
2018-09-14T03:28:24.291Z,10.37
2018-09-14T03:30:53.137Z,10.53
2018-09-14T03:33:21.969Z,10.00
2018-09-14T03:35:50.791Z,9.77
2018-09-14T03:38:19.636Z,10.50
2018-09-14T03:40:48.472Z,10.40
2018-09-14T03:43:17.295Z,11.73
2018-09-14T03:45:46.130Z,10.83
2018-09-14T03:48:14.971Z,10.27
2018-09-14T03:50:43.799Z,11.50
2018-09-14T03:53:12.635Z,11.67
2018-09-14T03:55:41.454Z,9.90
2018-09-14T03:58:10.292Z,10.87
2018-09-14T04:00:39.118Z,9.60
2018-09-14T04:03:07.944Z,9.87
2018-09-14T04:05:36.774Z,11.37
2018-09-14T04:08:06.360Z,9.93
2018-09-14T04:10:35.207Z,10.60
2018-09-14T04:13:04.043Z,10.57
2018-09-14T04:15:32.877Z,10.17
2018-09-14T04:18:01.740Z,10.33
2018-09-14T04:20:31.316Z,9.97
2018-09-14T04:23:00.153Z,8.93
2018-09-14T04:25:28.987Z,9.90
2018-09-14T04:27:57.873Z,10.73
2018-09-14T04:30:26.649Z,10.03
2018-09-14T04:32:55.485Z,11.53
2018-09-14T04:35:24.320Z,9.43
2018-09-14T04:37:53.147Z,11.87
2018-09-14T04:40:21.974Z,9.97
2018-09-14T04:42:51.541Z,10.87
2018-09-14T04:45:20.386Z,9.47
2018-09-14T04:47:49.226Z,9.43
2018-09-14T04:50:18.066Z,10.23
2018-09-14T04:52:46.897Z,9.27
2018-09-14T04:55:15.730Z,10.33
2018-09-14T04:57:44.559Z,9.77
2018-09-14T05:00:13.393Z,10.00
2018-09-14T05:02:42.219Z,10.33
2018-09-14T05:05:11.074Z,10.57
2018-09-14T05:07:39.975Z,10.53
2018-09-14T05:10:08.769Z,10.75
2018-09-14T05:12:38.334Z,9.67
2018-09-14T05:15:07.162Z,9.80
2018-09-14T05:17:36.761Z,10.03
2018-09-14T05:20:05.580Z,10.20
2018-09-14T05:22:34.408Z,10.17
2018-09-14T05:25:03.304Z,10.13
2018-09-14T05:27:32.836Z,10.50
2018-09-14T05:30:01.675Z,10.23
2018-09-14T05:32:30.509Z,10.10
2018-09-14T05:34:59.335Z,9.93
2018-09-14T05:37:28.164Z,10.30
2018-09-14T05:39:56.988Z,9.97
2018-09-14T05:42:26.567Z,11.73
2018-09-14T05:44:55.404Z,10.90
2018-09-14T05:47:24.236Z,9.97
2018-09-14T05:49:53.073Z,10.70
2018-09-14T05:52:21.913Z,9.70
2018-09-14T05:54:50.751Z,10.68
2018-09-14T05:57:19.593Z,11.77
2018-09-14T05:59:48.429Z,11.67
2018-09-14T06:02:17.989Z,9.40
2018-09-14T06:04:46.841Z,13.87
2018-09-14T06:07:15.683Z,9.20
2018-09-14T06:09:44.505Z,9.40
2018-09-14T06:12:13.345Z,10.63
2018-09-14T06:14:42.181Z,9.20
2018-09-14T06:17:11.090Z,11.50
2018-09-14T06:19:39.845Z,10.23
2018-09-14T06:22:09.453Z,11.00
2018-09-14T06:24:38.293Z,11.88
2018-09-14T06:27:07.125Z,11.95
2018-09-14T06:29:36.718Z,11.00
2018-09-14T06:32:05.550Z,10.30
2018-09-14T06:34:34.375Z,10.80
2018-09-14T06:37:03.208Z,11.23
2018-09-14T06:39:32.791Z,10.77
2018-09-14T06:42:02.209Z,12.17
2018-09-14T06:44:31.059Z,10.67
2018-09-14T06:46:59.894Z,11.47
2018-09-14T06:49:29.490Z,12.30
2018-09-14T06:51:58.377Z,12.73
2018-09-14T06:54:27.178Z,12.60
2018-09-14T06:56:56.026Z,11.37
2018-09-14T06:59:24.880Z,11.83
2018-09-14T07:01:53.734Z,11.70
2018-09-14T07:04:22.578Z,12.40
2018-09-14T07:06:51.427Z,11.57
2018-09-14T07:09:21.013Z,11.70
2018-09-14T07:11:49.846Z,11.70
2018-09-14T07:14:19.421Z,11.77
2018-09-14T07:16:48.268Z,11.37
2018-09-14T07:19:17.121Z,12.70
2018-09-14T07:21:46.021Z,12.33
2018-09-14T07:24:14.855Z,13.90
2018-09-14T07:26:43.698Z,11.20
2018-09-14T07:29:13.407Z,11.70
2018-09-14T07:31:42.139Z,11.90
2018-09-14T07:34:10.944Z,10.90
2018-09-14T07:36:39.850Z,12.97
2018-09-14T07:39:08.636Z,12.33
2018-09-14T07:41:37.472Z,13.30
2018-09-14T07:44:06.314Z,13.13
2018-09-14T07:46:35.899Z,12.80
2018-09-14T07:49:04.741Z,11.73
2018-09-14T07:51:33.581Z,12.27
2018-09-14T07:54:02.424Z,11.57
2018-09-14T07:56:31.274Z,14.90
2018-09-14T07:59:00.106Z,15.37
2018-09-14T08:01:28.945Z,13.10
2018-09-14T08:03:57.799Z,14.90
2018-09-14T08:06:26.658Z,15.98
2018-09-14T08:08:55.506Z,13.70
2018-09-14T08:11:24.337Z,16.60
2018-09-14T08:13:53.173Z,16.47
2018-09-14T08:16:22.009Z,12.73
2018-09-14T08:18:50.864Z,20.30
2018-09-14T08:21:19.812Z,19.70
2018-09-14T08:23:48.554Z,17.07
2018-09-14T08:26:17.385Z,15.77
2018-09-14T08:28:46.210Z,12.60
2018-09-14T08:31:15.041Z,12.77
2018-09-14T08:33:43.898Z,12.20
2018-09-14T08:36:12.753Z,15.15
2018-09-14T08:38:41.599Z,14.27
2018-09-14T08:41:10.437Z,13.90
2018-09-14T08:43:39.277Z,13.97
2018-09-14T08:46:08.863Z,14.63
2018-09-14T08:48:37.693Z,15.27
2018-09-14T08:51:06.547Z,16.30
2018-09-14T08:53:35.394Z,14.90
2018-09-14T08:56:04.222Z,19.13
2018-09-14T08:58:33.082Z,15.33
2018-09-14T09:01:01.934Z,17.23
2018-09-14T09:03:30.811Z,15.90
2018-09-14T09:05:59.610Z,16.92
2018-09-14T09:08:28.457Z,14.70
2018-09-14T09:10:58.035Z,16.58
2018-09-14T09:13:26.873Z,15.43
2018-09-14T09:15:55.719Z,16.87
2018-09-14T09:18:24.546Z,18.58
2018-09-14T09:20:53.387Z,17.30
2018-09-14T09:23:22.240Z,15.13
2018-09-14T09:25:51.070Z,20.70
2018-09-14T09:28:19.899Z,15.80
2018-09-14T09:30:48.754Z,14.40
2018-09-14T09:33:17.606Z,16.70
2018-09-14T09:35:46.453Z,14.73
2018-09-14T09:38:15.284Z,16.33
2018-09-14T09:40:44.137Z,15.33
2018-09-14T09:43:13.027Z,14.43
2018-09-14T09:45:41.829Z,12.18
2018-09-14T09:48:10.674Z,13.90
2018-09-14T09:50:39.555Z,17.20
2018-09-14T09:53:09.102Z,14.68
2018-09-14T09:55:38.685Z,14.35
2018-09-14T09:58:07.525Z,16.55
2018-09-14T10:00:36.362Z,16.15
2018-09-14T10:03:05.200Z,16.83
2018-09-14T10:05:34.775Z,14.40
2018-09-14T10:08:03.619Z,13.75
2018-09-14T10:10:32.467Z,15.52
2018-09-14T10:13:01.327Z,17.10
2018-09-14T10:15:30.153Z,16.15
2018-09-14T10:17:59.732Z,15.32
2018-09-14T10:20:28.599Z,14.43
2018-09-14T10:22:58.144Z,14.43
2018-09-14T10:25:27.001Z,15.02
2018-09-14T10:27:55.841Z,18.05
2018-09-14T10:30:25.422Z,14.57
2018-09-14T10:32:54.256Z,14.15
2018-09-14T10:35:23.106Z,14.65
2018-09-14T10:37:52.005Z,13.82
2018-09-14T10:40:20.842Z,15.77
2018-09-14T10:42:49.700Z,15.98
2018-09-14T10:45:18.502Z,18.95
2018-09-14T10:47:48.058Z,16.30
2018-09-14T10:50:16.896Z,18.08
2018-09-14T10:52:45.740Z,15.73
2018-09-14T10:55:14.633Z,15.65
2018-09-14T10:57:43.426Z,16.85
2018-09-14T11:00:12.273Z,22.83
2018-09-14T11:02:41.120Z,16.98
2018-09-14T11:05:10.714Z,15.00
2018-09-14T11:07:39.562Z,17.80
2018-09-14T11:10:08.406Z,19.40
2018-09-14T11:12:37.271Z,17.52
2018-09-14T11:15:06.103Z,16.50
2018-09-14T11:17:34.951Z,15.68
2018-09-14T11:20:03.788Z,14.40
2018-09-14T11:22:32.629Z,15.35
2018-09-14T11:25:01.487Z,14.85
2018-09-14T11:27:30.310Z,13.70
2018-09-14T11:29:59.157Z,15.75
2018-09-14T11:32:28.145Z,11.90
2018-09-14T11:34:57.576Z,15.30
2018-09-14T11:37:26.639Z,15.52
2018-09-14T11:39:55.452Z,16.52
2018-09-14T11:42:24.296Z,15.13
2018-09-14T11:44:53.144Z,13.25
2018-09-14T11:47:21.987Z,14.15
2018-09-14T11:49:50.850Z,14.87
2018-09-14T11:52:19.695Z,13.82
2018-09-14T11:54:48.530Z,14.52
2018-09-14T11:57:18.121Z,14.87
2018-09-14T11:59:46.966Z,14.38
2018-09-14T12:02:15.805Z,14.70
2018-09-14T12:04:44.798Z,14.45
2018-09-14T12:07:13.501Z,15.38
2018-09-14T12:09:43.079Z,14.38
2018-09-14T12:12:11.916Z,14.27
2018-09-14T12:14:40.771Z,14.98
2018-09-14T12:17:10.351Z,14.02
2018-09-14T12:19:39.184Z,13.52
2018-09-14T12:22:08.065Z,13.35
2018-09-14T12:24:36.864Z,13.95
2018-09-14T12:27:05.710Z,11.35
2018-09-14T12:29:34.543Z,12.10
2018-09-14T12:32:03.397Z,13.88
2018-09-14T12:34:32.246Z,12.95
2018-09-14T12:37:01.090Z,14.90
2018-09-14T12:39:29.933Z,13.65
2018-09-14T12:41:58.768Z,16.17
2018-09-14T12:44:28.358Z,15.35
2018-09-14T12:46:57.208Z,15.15
2018-09-14T12:49:26.063Z,13.60
2018-09-14T12:51:55.644Z,13.30
2018-09-14T12:54:24.488Z,14.25
2018-09-14T12:56:53.327Z,14.73
2018-09-14T12:59:22.188Z,13.20
2018-09-14T13:01:51.042Z,12.07
2018-09-14T13:04:19.905Z,11.35
2018-09-14T13:06:48.725Z,12.57
2018-09-14T13:09:17.557Z,11.10
2018-09-14T13:11:46.387Z,11.48
2018-09-14T13:14:15.222Z,9.35
2018-09-14T13:16:44.058Z,13.13
2018-09-14T13:19:12.917Z,10.95
2018-09-14T13:21:41.745Z,12.80
2018-09-14T13:24:11.369Z,12.70
2018-09-14T13:26:40.189Z,12.00
2018-09-14T13:29:09.054Z,10.93
2018-09-14T13:31:37.865Z,12.40
2018-09-14T13:34:06.700Z,10.73
2018-09-14T13:36:35.543Z,11.25
2018-09-14T13:39:04.384Z,9.95
2018-09-14T13:41:33.961Z,11.50
2018-09-14T13:44:02.796Z,11.73
2018-09-14T13:46:31.676Z,12.40
2018-09-14T13:49:01.278Z,11.75
2018-09-14T13:51:30.116Z,11.25
2018-09-14T13:53:58.957Z,12.23
2018-09-14T13:56:28.549Z,11.27
2018-09-14T13:58:58.119Z,9.10
2018-09-14T14:01:27.053Z,10.23
2018-09-14T14:03:56.530Z,12.52
2018-09-14T14:06:25.371Z,10.73
2018-09-14T14:08:54.229Z,7.50
2018-09-14T14:11:23.070Z,6.03
2018-09-14T14:13:51.918Z,7.70
2018-09-14T14:16:20.774Z,8.05
2018-09-14T14:18:49.596Z,8.80
2018-09-14T14:21:18.453Z,7.40
2018-09-14T14:23:47.300Z,8.73
2018-09-14T14:26:16.149Z,9.55
2018-09-14T14:28:44.987Z,7.35
2018-09-14T14:31:13.822Z,5.85
2018-09-14T14:33:42.653Z,6.57
2018-09-14T14:36:12.234Z,6.87
2018-09-14T14:38:41.067Z,5.15
2018-09-14T14:41:09.920Z,4.62
2018-09-14T14:43:38.764Z,4.45
2018-09-14T14:46:07.597Z,5.43
2018-09-14T14:48:36.437Z,5.50
2018-09-14T14:51:05.296Z,6.25
2018-09-14T14:53:34.158Z,4.43
2018-09-14T14:56:03.055Z,5.25
2018-09-14T14:58:31.843Z,3.28
2018-09-14T15:01:00.668Z,2.97
2018-09-14T15:03:29.507Z,3.47
2018-09-14T15:05:58.358Z,3.25
2018-09-14T15:08:27.202Z,3.60
2018-09-14T15:10:56.057Z,5.32
2018-09-14T15:13:24.886Z,4.25
2018-09-14T15:16:06.559Z,4.30
2018-09-14T15:18:36.149Z,6.37
2018-09-14T15:21:04.999Z,6.68
2018-09-14T15:23:33.840Z,6.20
2018-09-14T15:26:02.687Z,5.62
2018-09-14T15:28:31.520Z,4.97
2018-09-14T15:31:01.106Z,4.18
2018-09-14T15:33:29.935Z,3.60
2018-09-14T15:35:59.068Z,3.62
2018-09-14T15:38:27.589Z,3.40
2018-09-14T15:40:56.431Z,4.12
2018-09-14T15:43:25.277Z,3.05
2018-09-14T15:45:54.117Z,5.40
2018-09-14T15:48:22.961Z,3.83
2018-09-14T15:50:52.545Z,4.80
2018-09-14T15:53:21.385Z,3.67
2018-09-14T15:55:50.234Z,3.35
2018-09-14T15:58:19.084Z,2.92
2018-09-14T16:00:47.931Z,3.03
2018-09-14T16:03:16.802Z,4.25
2018-09-14T16:05:46.219Z,3.15
2018-09-14T16:08:15.063Z,2.75
2018-09-14T16:10:43.924Z,3.53
2018-09-14T16:13:12.738Z,4.40
2018-09-14T16:15:41.571Z,2.35
2018-09-14T16:18:11.153Z,2.42
2018-09-14T16:20:39.991Z,3.50
2018-09-14T16:23:08.833Z,2.47
2018-09-14T16:25:37.670Z,2.87
2018-09-14T16:28:06.500Z,3.12
2018-09-14T16:30:35.333Z,2.10
2018-09-14T16:33:04.169Z,2.05
2018-09-14T16:35:32.994Z,2.28
2018-09-14T16:38:01.850Z,1.90
2018-09-14T16:40:30.695Z,2.60
2018-09-14T16:42:59.533Z,3.17
2018-09-14T16:45:28.392Z,2.40
2018-09-14T16:47:57.222Z,3.08
2018-09-14T16:50:26.126Z,3.97
2018-09-14T16:52:54.900Z,2.67
2018-09-14T16:55:23.751Z,2.70
2018-09-14T16:57:52.571Z,3.10
2018-09-14T17:00:21.993Z,4.37
2018-09-14T17:02:50.848Z,2.72
2018-09-14T17:05:19.660Z,3.58
2018-09-14T17:07:48.478Z,2.62
2018-09-14T17:10:17.405Z,3.03
2018-09-14T17:12:46.150Z,3.55
2018-09-14T17:15:14.978Z,2.87
2018-09-14T17:17:43.794Z,3.00
2018-09-14T17:20:12.626Z,2.80
2018-09-14T17:22:41.469Z,2.95
2018-09-14T17:25:10.295Z,4.07
2018-09-14T17:27:39.466Z,3.08
2018-09-14T17:30:08.307Z,2.72
2018-09-14T17:32:37.144Z,4.78
2018-09-14T17:35:05.996Z,3.08
2018-09-14T17:37:34.831Z,2.92
2018-09-14T17:40:03.682Z,2.80
2018-09-14T17:42:32.511Z,3.15
2018-09-14T17:45:01.357Z,3.58
2018-09-14T17:47:30.195Z,4.20
2018-09-14T17:49:59.624Z,3.25
2018-09-14T17:52:29.197Z,5.15
2018-09-14T17:54:58.043Z,4.43
2018-09-14T17:57:26.880Z,4.00
2018-09-14T17:59:55.715Z,3.92
2018-09-14T18:02:24.552Z,3.92
2018-09-14T18:04:53.379Z,3.17
2018-09-14T18:07:22.246Z,3.33
2018-09-14T18:09:51.071Z,3.72
2018-09-14T18:12:19.920Z,3.58
2018-09-14T18:14:48.770Z,3.53
2018-09-14T18:17:17.594Z,5.28
2018-09-14T18:19:46.421Z,4.40
2018-09-14T18:22:16.053Z,3.30
2018-09-14T18:24:45.016Z,3.42
2018-09-14T18:27:14.413Z,3.45
2018-09-14T18:29:43.259Z,3.78
2018-09-14T18:32:12.208Z,3.72
2018-09-14T18:34:41.164Z,3.25
2018-09-14T18:37:11.140Z,4.05
2018-09-14T18:39:39.911Z,4.97
2018-09-14T18:42:08.996Z,4.62
2018-09-14T18:47:48.553Z,4.85
2018-09-14T18:50:17.397Z,4.35
2018-09-14T18:52:46.482Z,4.00
2018-09-14T18:55:15.558Z,5.28
2018-09-14T18:57:44.368Z,4.30
2018-09-14T19:00:13.440Z,4.97
2018-09-14T19:02:42.248Z,4.97
2018-09-14T19:05:11.953Z,4.07
2018-09-14T19:07:40.749Z,4.05
2018-09-14T19:10:09.934Z,3.60
2018-09-14T19:12:38.737Z,4.03
2018-09-14T19:15:07.809Z,4.53
2018-09-14T19:17:36.612Z,3.90
2018-09-14T19:20:06.192Z,4.90
2018-09-14T19:22:35.031Z,4.87
2018-09-14T19:25:03.892Z,4.70
2018-09-14T19:27:32.738Z,4.57
2018-09-14T19:30:01.880Z,4.40
2018-09-14T19:32:31.047Z,5.05
2018-09-14T19:34:59.760Z,5.37
2018-09-14T19:37:28.798Z,5.70
2018-09-14T19:39:57.936Z,5.30
2018-09-14T19:42:26.791Z,5.35
2018-09-14T19:44:56.354Z,4.70
2018-09-14T19:47:25.242Z,5.62
2018-09-14T19:49:54.330Z,4.70
2018-09-14T19:52:23.410Z,5.25
2018-09-14T19:54:52.506Z,5.25
2018-09-14T19:57:21.495Z,5.47
2018-09-14T19:59:50.396Z,5.72
2018-09-14T20:02:19.193Z,5.03
2018-09-14T20:04:48.033Z,5.12
2018-09-14T20:07:17.148Z,4.60
2018-09-14T20:09:46.819Z,4.72
2018-09-14T20:12:15.640Z,5.12
2018-09-14T20:14:44.525Z,5.28
2018-09-14T20:17:13.417Z,4.62
2018-09-14T20:19:42.262Z,4.70
2018-09-14T20:22:11.058Z,5.10
2018-09-14T20:24:45.847Z,4.25
2018-09-14T20:27:14.720Z,5.20
2018-09-14T20:29:43.550Z,4.70
2018-09-14T20:32:12.436Z,5.37
2018-09-14T20:34:41.278Z,4.32
2018-09-14T20:37:10.218Z,4.70
2018-09-14T20:39:38.962Z,4.40
2018-09-14T20:42:07.814Z,5.32
2018-09-14T20:44:37.475Z,4.80
2018-09-14T20:47:06.297Z,6.00
2018-09-14T20:49:35.151Z,4.50
2018-09-14T20:52:03.983Z,5.22
2018-09-14T20:54:32.845Z,4.50
2018-09-14T20:57:01.683Z,4.65
2018-09-14T20:59:30.515Z,4.75
2018-09-14T21:01:59.423Z,4.37
2018-09-14T21:04:28.286Z,4.65
2018-09-14T21:06:57.100Z,4.47
2018-09-14T21:09:26.690Z,4.70
2018-09-14T21:11:55.521Z,4.43
2018-09-14T21:14:25.106Z,5.28
2018-09-14T21:16:53.961Z,4.90
2018-09-14T21:19:22.799Z,5.10
2018-09-14T21:21:53.133Z,5.87
2018-09-14T21:24:22.743Z,4.62
2018-09-14T21:26:51.588Z,5.75
2018-09-14T21:29:20.444Z,5.25
2018-09-14T21:31:49.344Z,4.72
2018-09-14T21:34:18.177Z,5.70
2018-09-14T21:36:47.053Z,4.80
2018-09-14T21:39:15.908Z,4.80
2018-09-14T21:41:44.765Z,5.28
2018-09-14T21:44:14.336Z,4.93
2018-09-14T21:46:43.174Z,6.05
2018-09-14T21:49:12.007Z,4.37
2018-09-14T21:51:40.879Z,4.68
2018-09-14T21:54:09.765Z,5.57
2018-09-14T21:56:38.570Z,5.22
2018-09-14T21:59:07.401Z,4.50
2018-09-14T22:01:36.233Z,5.18
2018-09-14T22:04:05.063Z,4.80
2018-09-14T22:06:33.914Z,4.90
2018-09-14T22:09:02.946Z,7.72
2018-09-14T22:11:31.788Z,5.05
2018-09-14T22:14:00.626Z,5.22
2018-09-14T22:16:29.473Z,5.22
2018-09-14T22:18:58.309Z,5.25
2018-09-14T22:21:27.168Z,5.80
2018-09-14T22:23:55.997Z,6.85
2018-09-14T22:26:25.578Z,4.85
2018-09-14T22:28:54.414Z,5.70
2018-09-14T22:31:23.256Z,5.18
2018-09-14T22:33:52.119Z,6.53
2018-09-14T22:36:20.956Z,7.00
2018-09-14T22:38:50.529Z,6.15
2018-09-14T22:41:19.369Z,5.93
2018-09-14T22:43:49.001Z,5.90
2018-09-14T22:46:17.778Z,5.18
2018-09-14T22:48:46.615Z,4.95
2018-09-14T22:51:15.456Z,5.85
2018-09-14T22:53:44.307Z,5.72
2018-09-14T22:56:13.141Z,5.87
2018-09-14T22:58:41.971Z,5.82
2018-09-14T23:01:10.828Z,6.05
2018-09-14T23:03:39.647Z,5.25
2018-09-14T23:06:08.473Z,5.82
2018-09-14T23:08:37.298Z,5.72
2018-09-14T23:11:06.126Z,5.95
2018-09-14T23:13:35.716Z,7.32
2018-09-14T23:16:04.542Z,5.95
2018-09-14T23:18:34.127Z,6.20
2018-09-14T23:21:03.718Z,5.68
2018-09-14T23:23:32.541Z,6.65
2018-09-14T23:26:02.109Z,7.30
2018-09-14T23:28:30.952Z,6.68
2018-09-14T23:30:59.789Z,6.32
2018-09-14T23:33:28.612Z,6.40
2018-09-14T23:35:58.192Z,5.97
2018-09-14T23:38:27.034Z,6.27
2018-09-14T23:40:55.909Z,6.87
2018-09-14T23:43:24.711Z,6.70
2018-09-14T23:45:54.017Z,6.72
2018-09-14T23:48:22.375Z,7.40
2018-09-14T23:50:51.288Z,7.85
2018-09-14T23:53:20.064Z,7.90
2018-09-14T23:55:48.897Z,8.25
2018-09-14T23:58:17.741Z,7.32
